sensor_id;sensor_type;location;lat;lon;timestamp;temperature;humidity
21167;DHT22;10741;52.272;9.580;2023-05-07T00:00:23;10.90;99.90
21167;DHT22;10741;52.272;9.580;2023-05-07T00:02:48;10.90;99.90
21167;DHT22;10741;52.272;9.580;2023-05-07T00:05:14;10.80;99.90
21167;DHT22;10741;52.272;9.580;2023-05-07T00:07:40;10.80;99.90
21167;DHT22;10741;52.272;9.580;2023-05-07T00:10:06;10.80;99.90
21167;DHT22;10741;52.272;9.580;2023-05-07T00:12:32;10.80;99.90
21167;DHT22;10741;52.272;9.580;2023-05-07T00:15:04;10.70;99.90
21167;DHT22;10741;52.272;9.580;2023-05-07T00:17:31;10.80;99.90
21167;DHT22;10741;52.272;9.580;2023-05-07T00:19:56;10.70;99.90
21167;DHT22;10741;52.272;9.580;2023-05-07T00:22:22;10.70;99.90
21167;DHT22;10741;52.272;9.580;2023-05-07T00:24:48;10.70;99.90
21167;DHT22;10741;52.272;9.580;2023-05-07T00:27:13;10.70;99.90
21167;DHT22;10741;52.272;9.580;2023-05-07T00:29:39;10.70;99.90
21167;DHT22;10741;52.272;9.580;2023-05-07T00:32:05;10.70;99.90
21167;DHT22;10741;52.272;9.580;2023-05-07T00:34:31;10.70;99.90
21167;DHT22;10741;52.272;9.580;2023-05-07T00:36:56;10.70;99.90
21167;DHT22;10741;52.272;9.580;2023-05-07T00:39:22;10.70;99.90
21167;DHT22;10741;52.272;9.580;2023-05-07T00:41:48;10.70;99.90
21167;DHT22;10741;52.272;9.580;2023-05-07T00:44:14;10.70;99.90
21167;DHT22;10741;52.272;9.580;2023-05-07T00:46:40;10.70;99.90
21167;DHT22;10741;52.272;9.580;2023-05-07T00:49:06;10.60;99.90
21167;DHT22;10741;52.272;9.580;2023-05-07T00:51:33;10.60;99.90
21167;DHT22;10741;52.272;9.580;2023-05-07T00:54:00;10.70;99.90
21167;DHT22;10741;52.272;9.580;2023-05-07T00:56:27;10.70;99.90
21167;DHT22;10741;52.272;9.580;2023-05-07T00:58:53;10.70;99.90
21167;DHT22;10741;52.272;9.580;2023-05-07T01:01:19;10.70;99.90
21167;DHT22;10741;52.272;9.580;2023-05-07T01:03:44;10.70;99.90
21167;DHT22;10741;52.272;9.580;2023-05-07T01:06:10;10.60;99.90
21167;DHT22;10741;52.272;9.580;2023-05-07T01:08:39;10.60;99.90
21167;DHT22;10741;52.272;9.580;2023-05-07T01:11:07;10.60;99.90
21167;DHT22;10741;52.272;9.580;2023-05-07T01:13:34;10.60;99.90
21167;DHT22;10741;52.272;9.580;2023-05-07T01:16:01;10.60;99.90
21167;DHT22;10741;52.272;9.580;2023-05-07T01:18:27;10.50;99.90
21167;DHT22;10741;52.272;9.580;2023-05-07T01:20:52;10.50;99.90
21167;DHT22;10741;52.272;9.580;2023-05-07T01:23:20;10.50;99.90
21167;DHT22;10741;52.272;9.580;2023-05-07T01:25:55;10.50;99.90
21167;DHT22;10741;52.272;9.580;2023-05-07T01:28:21;10.50;99.90
21167;DHT22;10741;52.272;9.580;2023-05-07T01:30:52;10.50;99.90
21167;DHT22;10741;52.272;9.580;2023-05-07T01:33:20;10.50;99.90
21167;DHT22;10741;52.272;9.580;2023-05-07T01:35:52;10.50;99.90
21167;DHT22;10741;52.272;9.580;2023-05-07T01:38:18;10.50;99.90
21167;DHT22;10741;52.272;9.580;2023-05-07T01:40:46;10.50;99.90
21167;DHT22;10741;52.272;9.580;2023-05-07T01:43:12;10.50;99.90
21167;DHT22;10741;52.272;9.580;2023-05-07T01:45:38;10.50;99.90
21167;DHT22;10741;52.272;9.580;2023-05-07T01:48:06;10.40;99.90
21167;DHT22;10741;52.272;9.580;2023-05-07T01:50:32;10.40;99.90
21167;DHT22;10741;52.272;9.580;2023-05-07T01:52:59;10.40;99.90
21167;DHT22;10741;52.272;9.580;2023-05-07T01:55:25;10.40;99.90
21167;DHT22;10741;52.272;9.580;2023-05-07T01:57:50;10.40;99.90
21167;DHT22;10741;52.272;9.580;2023-05-07T02:00:16;10.40;99.90
21167;DHT22;10741;52.272;9.580;2023-05-07T02:02:43;10.40;99.90
21167;DHT22;10741;52.272;9.580;2023-05-07T02:05:08;10.30;99.90
21167;DHT22;10741;52.272;9.580;2023-05-07T02:07:35;10.40;99.90
21167;DHT22;10741;52.272;9.580;2023-05-07T02:10:00;10.40;99.90
21167;DHT22;10741;52.272;9.580;2023-05-07T02:12:26;10.30;99.90
21167;DHT22;10741;52.272;9.580;2023-05-07T02:14:52;10.30;99.90
21167;DHT22;10741;52.272;9.580;2023-05-07T02:17:18;10.30;99.90
21167;DHT22;10741;52.272;9.580;2023-05-07T02:19:44;10.30;99.90
21167;DHT22;10741;52.272;9.580;2023-05-07T02:22:10;10.30;99.90
21167;DHT22;10741;52.272;9.580;2023-05-07T02:24:35;10.30;99.90
21167;DHT22;10741;52.272;9.580;2023-05-07T02:27:01;10.30;99.90
21167;DHT22;10741;52.272;9.580;2023-05-07T02:29:28;10.30;99.90
21167;DHT22;10741;52.272;9.580;2023-05-07T02:31:54;10.30;99.90
21167;DHT22;10741;52.272;9.580;2023-05-07T02:34:21;10.30;99.90
21167;DHT22;10741;52.272;9.580;2023-05-07T02:36:46;10.30;99.90
21167;DHT22;10741;52.272;9.580;2023-05-07T02:39:13;10.30;99.90
21167;DHT22;10741;52.272;9.580;2023-05-07T02:41:39;10.30;99.90
21167;DHT22;10741;52.272;9.580;2023-05-07T02:44:05;10.30;99.90
21167;DHT22;10741;52.272;9.580;2023-05-07T02:46:30;10.30;99.90
21167;DHT22;10741;52.272;9.580;2023-05-07T02:48:56;10.30;99.90
21167;DHT22;10741;52.272;9.580;2023-05-07T02:51:22;10.30;99.90
21167;DHT22;10741;52.272;9.580;2023-05-07T02:53:48;10.30;99.90
21167;DHT22;10741;52.272;9.580;2023-05-07T02:56:14;10.30;99.90
21167;DHT22;10741;52.272;9.580;2023-05-07T02:58:40;10.40;99.90
21167;DHT22;10741;52.272;9.580;2023-05-07T03:01:07;10.30;99.90
21167;DHT22;10741;52.272;9.580;2023-05-07T03:03:33;10.30;99.90
21167;DHT22;10741;52.272;9.580;2023-05-07T03:05:59;10.40;99.90
21167;DHT22;10741;52.272;9.580;2023-05-07T03:08:25;10.30;99.90
21167;DHT22;10741;52.272;9.580;2023-05-07T03:10:51;10.30;99.90
21167;DHT22;10741;52.272;9.580;2023-05-07T03:13:17;10.30;99.90
21167;DHT22;10741;52.272;9.580;2023-05-07T03:15:43;10.30;99.90
21167;DHT22;10741;52.272;9.580;2023-05-07T03:18:08;10.30;99.90
21167;DHT22;10741;52.272;9.580;2023-05-07T03:20:34;10.30;99.90
21167;DHT22;10741;52.272;9.580;2023-05-07T03:23:01;10.20;99.90
21167;DHT22;10741;52.272;9.580;2023-05-07T03:25:28;10.30;99.90
21167;DHT22;10741;52.272;9.580;2023-05-07T03:27:55;10.30;99.90
21167;DHT22;10741;52.272;9.580;2023-05-07T03:30:21;10.20;99.90
21167;DHT22;10741;52.272;9.580;2023-05-07T03:32:47;10.20;99.90
21167;DHT22;10741;52.272;9.580;2023-05-07T03:35:12;10.30;99.90
21167;DHT22;10741;52.272;9.580;2023-05-07T03:37:39;10.30;99.90
21167;DHT22;10741;52.272;9.580;2023-05-07T03:40:05;10.20;99.90
21167;DHT22;10741;52.272;9.580;2023-05-07T03:42:31;10.20;99.90
21167;DHT22;10741;52.272;9.580;2023-05-07T03:44:57;10.20;99.90
21167;DHT22;10741;52.272;9.580;2023-05-07T03:47:23;10.20;99.90
21167;DHT22;10741;52.272;9.580;2023-05-07T03:49:48;10.10;99.90
21167;DHT22;10741;52.272;9.580;2023-05-07T03:52:15;10.20;99.90
21167;DHT22;10741;52.272;9.580;2023-05-07T03:54:41;10.20;99.90
21167;DHT22;10741;52.272;9.580;2023-05-07T03:57:07;10.10;99.90
21167;DHT22;10741;52.272;9.580;2023-05-07T03:59:33;10.20;99.90
21167;DHT22;10741;52.272;9.580;2023-05-07T04:01:58;10.10;99.90
21167;DHT22;10741;52.272;9.580;2023-05-07T04:04:24;10.10;99.90
21167;DHT22;10741;52.272;9.580;2023-05-07T04:06:50;10.10;99.90
21167;DHT22;10741;52.272;9.580;2023-05-07T04:09:15;10.10;99.90
21167;DHT22;10741;52.272;9.580;2023-05-07T04:11:41;10.10;99.90
21167;DHT22;10741;52.272;9.580;2023-05-07T04:14:07;10.10;99.90
21167;DHT22;10741;52.272;9.580;2023-05-07T04:16:34;10.10;99.90
21167;DHT22;10741;52.272;9.580;2023-05-07T04:19:00;10.10;99.90
21167;DHT22;10741;52.272;9.580;2023-05-07T04:21:26;10.10;99.90
21167;DHT22;10741;52.272;9.580;2023-05-07T04:23:52;10.10;99.90
21167;DHT22;10741;52.272;9.580;2023-05-07T04:26:18;10.10;99.90
21167;DHT22;10741;52.272;9.580;2023-05-07T04:28:43;10.10;99.90
21167;DHT22;10741;52.272;9.580;2023-05-07T04:31:09;10.10;99.90
21167;DHT22;10741;52.272;9.580;2023-05-07T04:33:35;10.10;99.90
21167;DHT22;10741;52.272;9.580;2023-05-07T04:36:02;10.10;99.90
21167;DHT22;10741;52.272;9.580;2023-05-07T04:38:29;10.10;99.90
21167;DHT22;10741;52.272;9.580;2023-05-07T04:40:56;10.10;99.90
21167;DHT22;10741;52.272;9.580;2023-05-07T04:43:22;10.10;99.90
21167;DHT22;10741;52.272;9.580;2023-05-07T04:45:50;10.10;99.90
21167;DHT22;10741;52.272;9.580;2023-05-07T04:48:16;10.10;99.90
21167;DHT22;10741;52.272;9.580;2023-05-07T04:50:46;10.10;99.90
21167;DHT22;10741;52.272;9.580;2023-05-07T04:53:12;10.10;99.90
21167;DHT22;10741;52.272;9.580;2023-05-07T04:55:38;10.10;99.90
21167;DHT22;10741;52.272;9.580;2023-05-07T04:58:04;10.00;99.90
21167;DHT22;10741;52.272;9.580;2023-05-07T05:00:30;10.00;99.90
21167;DHT22;10741;52.272;9.580;2023-05-07T05:02:56;10.10;99.90
21167;DHT22;10741;52.272;9.580;2023-05-07T05:05:22;10.00;99.90
21167;DHT22;10741;52.272;9.580;2023-05-07T05:07:47;10.00;99.90
21167;DHT22;10741;52.272;9.580;2023-05-07T05:10:13;10.00;99.90
21167;DHT22;10741;52.272;9.580;2023-05-07T05:12:39;10.00;99.90
21167;DHT22;10741;52.272;9.580;2023-05-07T05:15:05;10.00;99.90
21167;DHT22;10741;52.272;9.580;2023-05-07T05:17:31;10.10;99.90
21167;DHT22;10741;52.272;9.580;2023-05-07T05:19:58;10.00;99.90
21167;DHT22;10741;52.272;9.580;2023-05-07T05:22:24;10.10;99.90
21167;DHT22;10741;52.272;9.580;2023-05-07T05:24:51;10.10;99.90
21167;DHT22;10741;52.272;9.580;2023-05-07T05:27:16;10.10;99.90
21167;DHT22;10741;52.272;9.580;2023-05-07T05:29:42;10.10;99.90
21167;DHT22;10741;52.272;9.580;2023-05-07T05:32:08;10.10;99.90
21167;DHT22;10741;52.272;9.580;2023-05-07T05:34:33;10.10;99.90
21167;DHT22;10741;52.272;9.580;2023-05-07T05:36:59;10.10;99.90
21167;DHT22;10741;52.272;9.580;2023-05-07T05:39:25;10.10;99.90
21167;DHT22;10741;52.272;9.580;2023-05-07T05:41:51;10.10;99.90
21167;DHT22;10741;52.272;9.580;2023-05-07T05:44:16;10.10;99.90
21167;DHT22;10741;52.272;9.580;2023-05-07T05:46:42;10.10;99.90
21167;DHT22;10741;52.272;9.580;2023-05-07T05:49:08;10.10;99.90
21167;DHT22;10741;52.272;9.580;2023-05-07T05:51:34;10.20;99.90
21167;DHT22;10741;52.272;9.580;2023-05-07T05:53:59;10.20;99.90
21167;DHT22;10741;52.272;9.580;2023-05-07T05:56:25;10.10;99.90
21167;DHT22;10741;52.272;9.580;2023-05-07T05:58:51;10.10;99.90
21167;DHT22;10741;52.272;9.580;2023-05-07T06:01:18;10.20;99.90
21167;DHT22;10741;52.272;9.580;2023-05-07T06:03:44;10.20;99.90
21167;DHT22;10741;52.272;9.580;2023-05-07T06:06:10;10.20;99.90
21167;DHT22;10741;52.272;9.580;2023-05-07T06:08:36;10.20;99.90
21167;DHT22;10741;52.272;9.580;2023-05-07T06:11:02;10.20;99.90
21167;DHT22;10741;52.272;9.580;2023-05-07T06:13:28;10.20;99.90
21167;DHT22;10741;52.272;9.580;2023-05-07T06:15:54;10.20;99.90
21167;DHT22;10741;52.272;9.580;2023-05-07T06:18:20;10.20;99.90
21167;DHT22;10741;52.272;9.580;2023-05-07T06:20:45;10.30;99.90
21167;DHT22;10741;52.272;9.580;2023-05-07T06:23:11;10.20;99.90
21167;DHT22;10741;52.272;9.580;2023-05-07T06:25:37;10.30;99.90
21167;DHT22;10741;52.272;9.580;2023-05-07T06:28:02;10.40;99.90
21167;DHT22;10741;52.272;9.580;2023-05-07T06:30:28;10.50;99.90
21167;DHT22;10741;52.272;9.580;2023-05-07T06:32:54;10.50;99.90
21167;DHT22;10741;52.272;9.580;2023-05-07T06:35:20;10.50;99.90
21167;DHT22;10741;52.272;9.580;2023-05-07T06:37:45;10.50;99.90
21167;DHT22;10741;52.272;9.580;2023-05-07T06:40:11;10.60;99.90
21167;DHT22;10741;52.272;9.580;2023-05-07T06:42:37;10.60;99.90
21167;DHT22;10741;52.272;9.580;2023-05-07T06:45:03;10.70;99.90
21167;DHT22;10741;52.272;9.580;2023-05-07T06:47:29;10.70;99.90
21167;DHT22;10741;52.272;9.580;2023-05-07T06:49:55;10.80;99.90
21167;DHT22;10741;52.272;9.580;2023-05-07T06:52:21;10.90;99.90
21167;DHT22;10741;52.272;9.580;2023-05-07T06:54:47;11.00;99.90
21167;DHT22;10741;52.272;9.580;2023-05-07T06:57:12;11.00;99.90
21167;DHT22;10741;52.272;9.580;2023-05-07T06:59:38;11.00;99.90
21167;DHT22;10741;52.272;9.580;2023-05-07T07:02:04;11.00;99.90
21167;DHT22;10741;52.272;9.580;2023-05-07T07:04:30;11.00;99.90
21167;DHT22;10741;52.272;9.580;2023-05-07T07:06:56;10.90;99.90
21167;DHT22;10741;52.272;9.580;2023-05-07T07:09:22;11.00;99.90
21167;DHT22;10741;52.272;9.580;2023-05-07T07:11:48;11.00;99.90
21167;DHT22;10741;52.272;9.580;2023-05-07T07:14:13;11.10;99.90
21167;DHT22;10741;52.272;9.580;2023-05-07T07:16:39;11.00;99.90
21167;DHT22;10741;52.272;9.580;2023-05-07T07:19:06;11.10;99.90
21167;DHT22;10741;52.272;9.580;2023-05-07T07:21:32;11.20;99.90
21167;DHT22;10741;52.272;9.580;2023-05-07T07:23:57;11.10;99.90
21167;DHT22;10741;52.272;9.580;2023-05-07T07:26:23;11.10;99.90
21167;DHT22;10741;52.272;9.580;2023-05-07T07:28:49;11.10;99.90
21167;DHT22;10741;52.272;9.580;2023-05-07T07:31:15;11.00;99.90
21167;DHT22;10741;52.272;9.580;2023-05-07T07:33:41;11.20;99.90
21167;DHT22;10741;52.272;9.580;2023-05-07T07:36:07;11.20;99.90
21167;DHT22;10741;52.272;9.580;2023-05-07T07:38:33;11.20;99.90
21167;DHT22;10741;52.272;9.580;2023-05-07T07:41:00;11.30;99.90
21167;DHT22;10741;52.272;9.580;2023-05-07T07:43:25;11.30;99.90
21167;DHT22;10741;52.272;9.580;2023-05-07T07:45:51;11.30;99.90
21167;DHT22;10741;52.272;9.580;2023-05-07T07:48:17;11.40;99.90
21167;DHT22;10741;52.272;9.580;2023-05-07T07:50:43;11.30;99.90
21167;DHT22;10741;52.272;9.580;2023-05-07T07:53:09;11.40;99.90
21167;DHT22;10741;52.272;9.580;2023-05-07T07:55:38;11.40;99.90
21167;DHT22;10741;52.272;9.580;2023-05-07T07:58:05;11.30;99.90
21167;DHT22;10741;52.272;9.580;2023-05-07T08:00:30;11.30;99.90
21167;DHT22;10741;52.272;9.580;2023-05-07T08:02:56;11.30;99.90
21167;DHT22;10741;52.272;9.580;2023-05-07T08:05:23;11.30;99.90
21167;DHT22;10741;52.272;9.580;2023-05-07T08:07:49;11.30;99.90
21167;DHT22;10741;52.272;9.580;2023-05-07T08:10:17;11.30;99.90
21167;DHT22;10741;52.272;9.580;2023-05-07T08:12:48;11.30;99.90
21167;DHT22;10741;52.272;9.580;2023-05-07T08:15:14;11.30;99.90
21167;DHT22;10741;52.272;9.580;2023-05-07T08:17:40;11.30;99.90
21167;DHT22;10741;52.272;9.580;2023-05-07T08:20:06;11.30;99.90
21167;DHT22;10741;52.272;9.580;2023-05-07T08:22:42;11.40;99.90
21167;DHT22;10741;52.272;9.580;2023-05-07T08:25:08;11.40;99.90
21167;DHT22;10741;52.272;9.580;2023-05-07T08:27:34;11.40;99.90
21167;DHT22;10741;52.272;9.580;2023-05-07T08:29:59;11.50;99.90
21167;DHT22;10741;52.272;9.580;2023-05-07T08:32:25;11.60;99.90
21167;DHT22;10741;52.272;9.580;2023-05-07T08:34:51;11.60;99.90
21167;DHT22;10741;52.272;9.580;2023-05-07T08:37:17;11.60;99.90
21167;DHT22;10741;52.272;9.580;2023-05-07T08:39:42;11.60;99.90
21167;DHT22;10741;52.272;9.580;2023-05-07T08:42:09;11.60;99.90
21167;DHT22;10741;52.272;9.580;2023-05-07T08:44:38;11.50;99.90
21167;DHT22;10741;52.272;9.580;2023-05-07T08:47:06;11.60;99.90
21167;DHT22;10741;52.272;9.580;2023-05-07T08:49:33;11.50;99.90
21167;DHT22;10741;52.272;9.580;2023-05-07T08:51:59;11.50;99.90
21167;DHT22;10741;52.272;9.580;2023-05-07T08:54:26;11.60;99.90
21167;DHT22;10741;52.272;9.580;2023-05-07T08:56:53;11.60;99.90
21167;DHT22;10741;52.272;9.580;2023-05-07T08:59:19;11.50;99.90
21167;DHT22;10741;52.272;9.580;2023-05-07T09:01:44;11.50;99.90
21167;DHT22;10741;52.272;9.580;2023-05-07T09:04:11;11.60;99.90
21167;DHT22;10741;52.272;9.580;2023-05-07T09:06:38;11.60;99.90
21167;DHT22;10741;52.272;9.580;2023-05-07T09:09:07;11.60;99.90
21167;DHT22;10741;52.272;9.580;2023-05-07T09:11:33;11.60;99.90
21167;DHT22;10741;52.272;9.580;2023-05-07T09:13:59;11.70;99.90
21167;DHT22;10741;52.272;9.580;2023-05-07T09:16:30;11.80;99.90
21167;DHT22;10741;52.272;9.580;2023-05-07T09:18:58;11.80;99.90
21167;DHT22;10741;52.272;9.580;2023-05-07T09:21:24;11.80;99.90
21167;DHT22;10741;52.272;9.580;2023-05-07T09:23:54;11.90;99.90
21167;DHT22;10741;52.272;9.580;2023-05-07T09:26:24;11.90;99.90
21167;DHT22;10741;52.272;9.580;2023-05-07T09:28:50;11.80;99.90
21167;DHT22;10741;52.272;9.580;2023-05-07T09:31:17;11.90;99.90
21167;DHT22;10741;52.272;9.580;2023-05-07T09:33:42;12.00;99.90
21167;DHT22;10741;52.272;9.580;2023-05-07T09:36:09;12.00;99.90
21167;DHT22;10741;52.272;9.580;2023-05-07T09:38:36;12.00;99.90
21167;DHT22;10741;52.272;9.580;2023-05-07T09:43:33;12.20;99.90
21167;DHT22;10741;52.272;9.580;2023-05-07T09:46:11;12.30;99.90
21167;DHT22;10741;52.272;9.580;2023-05-07T09:48:40;12.30;99.90
21167;DHT22;10741;52.272;9.580;2023-05-07T09:51:25;12.40;99.90
21167;DHT22;10741;52.272;9.580;2023-05-07T09:53:54;12.40;99.90
21167;DHT22;10741;52.272;9.580;2023-05-07T09:56:21;12.40;99.90
21167;DHT22;10741;52.272;9.580;2023-05-07T09:58:48;12.40;99.90
21167;DHT22;10741;52.272;9.580;2023-05-07T10:01:17;12.40;99.90
21167;DHT22;10741;52.272;9.580;2023-05-07T10:03:45;12.50;99.90
21167;DHT22;10741;52.272;9.580;2023-05-07T10:06:13;12.50;99.90
21167;DHT22;10741;52.272;9.580;2023-05-07T10:08:39;12.70;99.90
21167;DHT22;10741;52.272;9.580;2023-05-07T10:11:05;12.80;99.90
21167;DHT22;10741;52.272;9.580;2023-05-07T10:13:33;12.70;99.90
21167;DHT22;10741;52.272;9.580;2023-05-07T10:16:03;12.70;99.90
21167;DHT22;10741;52.272;9.580;2023-05-07T10:18:33;12.80;99.90
21167;DHT22;10741;52.272;9.580;2023-05-07T10:21:07;12.60;99.90
21167;DHT22;10741;52.272;9.580;2023-05-07T10:23:33;12.70;99.90
21167;DHT22;10741;52.272;9.580;2023-05-07T10:26:02;12.70;99.90
21167;DHT22;10741;52.272;9.580;2023-05-07T10:28:34;12.70;99.90
21167;DHT22;10741;52.272;9.580;2023-05-07T10:33:55;12.70;99.90
21167;DHT22;10741;52.272;9.580;2023-05-07T10:36:22;12.60;99.90
21167;DHT22;10741;52.272;9.580;2023-05-07T10:38:49;12.60;99.90
21167;DHT22;10741;52.272;9.580;2023-05-07T10:41:15;12.60;99.90
21167;DHT22;10741;52.272;9.580;2023-05-07T10:43:45;12.50;99.90
21167;DHT22;10741;52.272;9.580;2023-05-07T10:46:15;12.40;99.90
21167;DHT22;10741;52.272;9.580;2023-05-07T10:51:26;12.70;99.90
21167;DHT22;10741;52.272;9.580;2023-05-07T10:54:18;12.80;99.90
21167;DHT22;10741;52.272;9.580;2023-05-07T10:56:44;12.70;99.90
21167;DHT22;10741;52.272;9.580;2023-05-07T11:01:55;12.70;99.90
21167;DHT22;10741;52.272;9.580;2023-05-07T11:04:23;12.80;99.90
21167;DHT22;10741;52.272;9.580;2023-05-07T11:09:58;13.00;99.90
21167;DHT22;10741;52.272;9.580;2023-05-07T11:15:08;13.20;99.90
21167;DHT22;10741;52.272;9.580;2023-05-07T11:17:51;13.30;99.90
21167;DHT22;10741;52.272;9.580;2023-05-07T11:20:17;13.40;99.90
21167;DHT22;10741;52.272;9.580;2023-05-07T11:22:43;13.60;99.90
21167;DHT22;10741;52.272;9.580;2023-05-07T11:25:09;13.50;99.90
21167;DHT22;10741;52.272;9.580;2023-05-07T11:27:35;13.60;99.90
21167;DHT22;10741;52.272;9.580;2023-05-07T11:30:01;13.60;99.90
21167;DHT22;10741;52.272;9.580;2023-05-07T11:32:28;13.60;99.90
21167;DHT22;10741;52.272;9.580;2023-05-07T11:34:55;13.80;99.90
21167;DHT22;10741;52.272;9.580;2023-05-07T11:37:22;14.10;99.90
21167;DHT22;10741;52.272;9.580;2023-05-07T11:39:48;14.30;99.90
21167;DHT22;10741;52.272;9.580;2023-05-07T11:42:31;14.30;99.90
21167;DHT22;10741;52.272;9.580;2023-05-07T11:44:58;14.10;99.90
21167;DHT22;10741;52.272;9.580;2023-05-07T11:47:24;14.20;99.90
21167;DHT22;10741;52.272;9.580;2023-05-07T11:49:52;14.20;99.90
21167;DHT22;10741;52.272;9.580;2023-05-07T11:52:20;14.20;99.90
21167;DHT22;10741;52.272;9.580;2023-05-07T11:54:53;14.00;99.90
21167;DHT22;10741;52.272;9.580;2023-05-07T11:57:19;14.00;99.90
21167;DHT22;10741;52.272;9.580;2023-05-07T11:59:45;14.00;99.90
21167;DHT22;10741;52.272;9.580;2023-05-07T12:02:17;14.00;99.90
21167;DHT22;10741;52.272;9.580;2023-05-07T12:04:44;13.90;99.90
21167;DHT22;10741;52.272;9.580;2023-05-07T12:07:13;13.90;99.90
21167;DHT22;10741;52.272;9.580;2023-05-07T12:09:40;14.10;99.90
21167;DHT22;10741;52.272;9.580;2023-05-07T12:12:06;14.00;99.90
21167;DHT22;10741;52.272;9.580;2023-05-07T12:14:32;13.80;99.90
21167;DHT22;10741;52.272;9.580;2023-05-07T12:17:00;13.80;99.90
21167;DHT22;10741;52.272;9.580;2023-05-07T12:19:29;13.80;99.90
21167;DHT22;10741;52.272;9.580;2023-05-07T12:21:56;13.90;99.90
21167;DHT22;10741;52.272;9.580;2023-05-07T12:24:22;13.80;99.90
21167;DHT22;10741;52.272;9.580;2023-05-07T12:26:48;13.90;99.90
21167;DHT22;10741;52.272;9.580;2023-05-07T12:29:14;14.00;99.90
21167;DHT22;10741;52.272;9.580;2023-05-07T12:31:43;14.00;99.90
21167;DHT22;10741;52.272;9.580;2023-05-07T12:34:11;14.30;99.90
21167;DHT22;10741;52.272;9.580;2023-05-07T12:36:40;14.40;99.90
21167;DHT22;10741;52.272;9.580;2023-05-07T12:39:07;14.50;99.90
21167;DHT22;10741;52.272;9.580;2023-05-07T12:41:51;14.50;99.90
21167;DHT22;10741;52.272;9.580;2023-05-07T12:44:18;14.70;99.90
21167;DHT22;10741;52.272;9.580;2023-05-07T12:46:44;14.60;99.90
21167;DHT22;10741;52.272;9.580;2023-05-07T12:49:12;14.80;99.90
21167;DHT22;10741;52.272;9.580;2023-05-07T12:51:38;14.80;99.90
21167;DHT22;10741;52.272;9.580;2023-05-07T12:54:03;14.90;99.90
21167;DHT22;10741;52.272;9.580;2023-05-07T12:56:36;14.80;99.90
21167;DHT22;10741;52.272;9.580;2023-05-07T12:59:02;15.00;99.90
21167;DHT22;10741;52.272;9.580;2023-05-07T13:01:31;14.90;99.90
21167;DHT22;10741;52.272;9.580;2023-05-07T13:04:03;14.90;99.90
21167;DHT22;10741;52.272;9.580;2023-05-07T13:06:30;15.00;99.90
21167;DHT22;10741;52.272;9.580;2023-05-07T13:08:56;15.20;99.90
21167;DHT22;10741;52.272;9.580;2023-05-07T13:11:22;15.10;99.90
21167;DHT22;10741;52.272;9.580;2023-05-07T13:13:48;14.90;99.90
21167;DHT22;10741;52.272;9.580;2023-05-07T13:16:14;14.90;99.90
21167;DHT22;10741;52.272;9.580;2023-05-07T13:18:40;14.80;99.90
21167;DHT22;10741;52.272;9.580;2023-05-07T13:21:06;14.80;99.90
21167;DHT22;10741;52.272;9.580;2023-05-07T13:23:32;14.80;99.90
21167;DHT22;10741;52.272;9.580;2023-05-07T13:25:57;14.70;99.90
21167;DHT22;10741;52.272;9.580;2023-05-07T13:28:24;14.80;99.90
21167;DHT22;10741;52.272;9.580;2023-05-07T13:30:50;14.90;99.90
21167;DHT22;10741;52.272;9.580;2023-05-07T13:33:17;14.60;99.90
21167;DHT22;10741;52.272;9.580;2023-05-07T13:35:43;14.70;99.90
21167;DHT22;10741;52.272;9.580;2023-05-07T13:38:09;14.80;99.90
21167;DHT22;10741;52.272;9.580;2023-05-07T13:40:35;15.20;99.90
21167;DHT22;10741;52.272;9.580;2023-05-07T13:43:01;15.40;99.90
21167;DHT22;10741;52.272;9.580;2023-05-07T13:45:30;15.30;99.90
21167;DHT22;10741;52.272;9.580;2023-05-07T13:47:56;15.30;99.90
21167;DHT22;10741;52.272;9.580;2023-05-07T13:50:22;15.10;99.90
21167;DHT22;10741;52.272;9.580;2023-05-07T13:52:48;15.70;99.90
21167;DHT22;10741;52.272;9.580;2023-05-07T13:55:20;16.00;99.90
21167;DHT22;10741;52.272;9.580;2023-05-07T13:57:47;16.10;99.90
21167;DHT22;10741;52.272;9.580;2023-05-07T14:00:13;16.20;99.90
21167;DHT22;10741;52.272;9.580;2023-05-07T14:02:40;16.20;99.90
21167;DHT22;10741;52.272;9.580;2023-05-07T14:05:06;16.80;99.90
21167;DHT22;10741;52.272;9.580;2023-05-07T14:07:32;17.60;99.90
21167;DHT22;10741;52.272;9.580;2023-05-07T14:09:58;17.90;99.90
21167;DHT22;10741;52.272;9.580;2023-05-07T14:12:24;17.80;99.90
21167;DHT22;10741;52.272;9.580;2023-05-07T14:14:50;17.20;99.90
21167;DHT22;10741;52.272;9.580;2023-05-07T14:17:17;16.80;99.90
21167;DHT22;10741;52.272;9.580;2023-05-07T14:19:43;17.00;99.90
21167;DHT22;10741;52.272;9.580;2023-05-07T14:22:09;17.10;99.90
21167;DHT22;10741;52.272;9.580;2023-05-07T14:24:35;17.30;99.90
21167;DHT22;10741;52.272;9.580;2023-05-07T14:27:01;17.30;99.90
21167;DHT22;10741;52.272;9.580;2023-05-07T14:29:27;17.10;99.90
21167;DHT22;10741;52.272;9.580;2023-05-07T14:31:53;17.20;99.90
21167;DHT22;10741;52.272;9.580;2023-05-07T14:34:19;17.30;99.90
21167;DHT22;10741;52.272;9.580;2023-05-07T14:36:44;17.30;99.90
21167;DHT22;10741;52.272;9.580;2023-05-07T14:39:10;17.30;99.90
21167;DHT22;10741;52.272;9.580;2023-05-07T14:41:36;17.40;99.90
21167;DHT22;10741;52.272;9.580;2023-05-07T14:44:02;17.20;99.90
21167;DHT22;10741;52.272;9.580;2023-05-07T14:46:29;17.40;99.90
21167;DHT22;10741;52.272;9.580;2023-05-07T14:48:56;17.30;99.90
21167;DHT22;10741;52.272;9.580;2023-05-07T14:51:22;17.00;99.90
21167;DHT22;10741;52.272;9.580;2023-05-07T14:53:50;17.00;99.90
21167;DHT22;10741;52.272;9.580;2023-05-07T14:56:16;16.80;99.90
21167;DHT22;10741;52.272;9.580;2023-05-07T14:58:42;16.80;99.90
21167;DHT22;10741;52.272;9.580;2023-05-07T15:01:08;16.50;99.90
21167;DHT22;10741;52.272;9.580;2023-05-07T15:03:34;16.10;99.90
21167;DHT22;10741;52.272;9.580;2023-05-07T15:06:01;16.00;99.90
21167;DHT22;10741;52.272;9.580;2023-05-07T15:08:26;16.10;99.90
21167;DHT22;10741;52.272;9.580;2023-05-07T15:10:52;16.00;99.90
21167;DHT22;10741;52.272;9.580;2023-05-07T15:13:18;15.90;99.90
21167;DHT22;10741;52.272;9.580;2023-05-07T15:15:44;15.90;99.90
21167;DHT22;10741;52.272;9.580;2023-05-07T15:18:10;15.60;99.90
21167;DHT22;10741;52.272;9.580;2023-05-07T15:20:36;15.40;99.90
21167;DHT22;10741;52.272;9.580;2023-05-07T15:23:03;15.30;99.90
21167;DHT22;10741;52.272;9.580;2023-05-07T15:25:31;15.20;99.90
21167;DHT22;10741;52.272;9.580;2023-05-07T15:27:58;15.10;99.90
21167;DHT22;10741;52.272;9.580;2023-05-07T15:30:24;15.20;99.90
21167;DHT22;10741;52.272;9.580;2023-05-07T15:32:50;15.10;99.90
21167;DHT22;10741;52.272;9.580;2023-05-07T15:35:16;15.10;99.90
21167;DHT22;10741;52.272;9.580;2023-05-07T15:37:50;15.10;99.90
21167;DHT22;10741;52.272;9.580;2023-05-07T15:40:16;15.10;99.90
21167;DHT22;10741;52.272;9.580;2023-05-07T15:42:45;14.90;99.90